Time;durP1;ratioP1;P1;durP2;ratioP2;P2;SDS_P1;SDS_P2;PMS_P1;PMS_P2;Temp;Humidity;BMP_temperature;BMP_pressure;BME280_temperature;BME280_humidity;BME280_pressure;Samples;Min_cycle;Max_cycle;Signal;HPM_P1;HPM_P2
2021/11/08 13:48:48;;;;;;;7.10;5.12;;;7.90;99.90;;;;;;3846324;37;20089;-65
2021/11/08 13:51:32;;;;;;;7.37;4.45;;;7.20;99.90;;;;;;4383374;32;20092;-65
2021/11/08 13:54:11;;;;;;;5.65;4.20;;;7.10;99.90;;;;;;4386765;32;20084;-62
2021/11/08 13:56:46;;;;;;;6.12;4.20;;;7.10;99.90;;;;;;4397934;32;20066;-63
2021/11/08 13:59:23;;;;;;;7.03;4.12;;;7.10;99.90;;;;;;4386042;32;20451;-63
2021/11/08 14:01:53;;;;;;;5.70;4.40;;;7.10;99.90;;;;;;4387143;32;20093;-62
2021/11/08 14:04:19;;;;;;;6.50;4.50;;;7.20;99.90;;;;;;4358678;32;20120;-62
2021/11/08 14:06:47;;;;;;;6.22;3.92;;;7.10;99.90;;;;;;4405334;32;20085;-64
2021/11/08 14:09:22;;;;;;;6.00;3.70;;;7.10;99.90;;;;;;4375268;32;20181;-65
2021/11/08 14:11:48;;;;;;;7.80;4.00;;;7.20;99.90;;;;;;4398370;32;20473;-63
2021/11/08 14:14:21;;;;;;;6.75;4.25;;;7.20;99.90;;;;;;4370599;32;20104;-62
2021/11/08 14:16:49;;;;;;;6.00;3.78;;;7.20;99.90;;;;;;4375717;32;20077;-63
2021/11/08 14:19:16;;;;;;;5.35;3.87;;;7.20;99.90;;;;;;4383306;32;20077;-61
2021/11/08 14:21:44;;;;;;;5.85;4.10;;;7.20;99.90;;;;;;4396044;32;20112;-66
2021/11/08 14:24:15;;;;;;;7.00;4.35;;;7.20;99.90;;;;;;4398684;32;20108;-64
2021/11/08 14:26:50;;;;;;;5.65;4.00;;;7.20;99.90;;;;;;4367610;32;20492;-62
2021/11/08 14:29:21;;;;;;;6.93;4.22;;;7.10;99.90;;;;;;4380944;32;20058;-62
2021/11/08 14:32:04;;;;;;;6.55;4.72;;;7.20;99.90;;;;;;4393803;32;20066;-62
2021/11/08 14:34:35;;;;;;;5.35;3.72;;;7.20;99.90;;;;;;4387957;32;20093;-63
2021/11/08 14:37:15;;;;;;;6.60;4.20;;;7.20;99.90;;;;;;4395155;32;20077;-63
2021/11/08 14:39:46;;;;;;;4.93;3.87;;;7.20;99.90;;;;;;4375339;32;20080;-63
2021/11/08 14:42:14;;;;;;;6.37;4.45;;;7.10;99.90;;;;;;4369735;32;20500;-64
2021/11/08 14:44:41;;;;;;;7.70;4.40;;;7.20;99.90;;;;;;4369595;32;20064;-60
2021/11/08 14:47:24;;;;;;;6.53;4.40;;;7.20;99.90;;;;;;4409174;32;20442;-63
2021/11/08 14:50:05;;;;;;;6.97;4.70;;;7.20;99.90;;;;;;4365233;32;20165;-63
2021/11/08 14:52:44;;;;;;;5.20;4.00;;;7.20;99.90;;;;;;4373793;32;20165;-63
2021/11/08 14:55:38;;;;;;;7.90;4.12;;;7.20;99.90;;;;;;4385137;32;20081;-63
2021/11/08 14:58:19;;;;;;;5.12;3.35;;;7.20;99.90;;;;;;4374719;32;20070;-71
2021/11/08 15:00:49;;;;;;;6.45;3.92;;;7.40;99.90;;;;;;4369561;32;20088;-66
2021/11/08 15:03:18;;;;;;;5.85;4.28;;;7.20;99.90;;;;;;4350923;32;20169;-62
2021/11/08 15:05:45;;;;;;;7.45;4.57;;;7.20;99.90;;;;;;4372659;32;20142;-63
2021/11/08 15:08:13;;;;;;;6.00;4.68;;;7.20;99.90;;;;;;4358615;32;20078;-63
2021/11/08 15:10:45;;;;;;;6.10;4.07;;;7.10;99.90;;;;;;4381179;32;20511;-65
2021/11/08 15:13:11;;;;;;;5.53;4.45;;;7.20;99.90;;;;;;4368234;32;20109;-61
2021/11/08 15:15:55;;;;;;;5.90;4.10;;;7.10;99.90;;;;;;4366739;32;20150;-62
2021/11/08 15:18:25;;;;;;;7.65;4.82;;;7.10;99.90;;;;;;4366790;32;20178;-65
2021/11/08 15:20:59;;;;;;;6.12;4.20;;;7.20;99.90;;;;;;4353004;32;20077;-71
2021/11/08 15:23:37;;;;;;;6.00;4.90;;;7.10;99.90;;;;;;4360293;32;20097;-68
2021/11/08 15:26:13;;;;;;;6.93;4.72;;;7.00;99.90;;;;;;4369641;32;20544;-65
2021/11/08 15:28:50;;;;;;;5.28;3.83;;;7.00;99.90;;;;;;4371088;32;20093;-64
2021/11/08 15:31:23;;;;;;;5.70;3.67;;;7.10;99.90;;;;;;4381929;32;20081;-65
2021/11/08 15:34:06;;;;;;;7.78;4.68;;;7.00;99.90;;;;;;4369598;32;20105;-63
2021/11/08 15:36:48;;;;;;;6.37;5.12;;;7.00;99.90;;;;;;4370233;32;20089;-62
2021/11/08 15:39:15;;;;;;;7.22;4.80;;;7.10;99.90;;;;;;4395535;32;20583;-64
2021/11/08 15:41:42;;;;;;;6.22;4.50;;;7.10;99.90;;;;;;4369558;32;20072;-63
2021/11/08 15:44:12;;;;;;;7.05;4.62;;;7.10;99.90;;;;;;4381561;32;20550;-64
2021/11/08 15:46:39;;;;;;;6.05;4.53;;;7.10;99.90;;;;;;4380490;32;20198;-65
2021/11/08 15:49:09;;;;;;;7.85;4.93;;;7.00;99.90;;;;;;4380103;32;20121;-65
2021/11/08 15:51:41;;;;;;;7.25;4.53;;;7.10;99.90;;;;;;4382797;32;20145;-62
2021/11/08 15:54:09;;;;;;;6.15;4.72;;;7.10;99.90;;;;;;4369850;32;20076;-65
2021/11/08 15:56:35;;;;;;;6.10;4.60;;;7.10;99.90;;;;;;4382180;32;20069;-64
2021/11/08 15:59:05;;;;;;;6.53;5.15;;;7.10;99.90;;;;;;4381771;32;20532;-64
2021/11/08 16:04:07;;;;;;;8.07;4.70;;;7.10;99.90;;;;;;3834390;37;20055;-64
2021/11/08 16:06:33;;;;;;;6.40;5.40;;;7.10;99.90;;;;;;4365842;32;20157;-64
2021/11/08 16:09:00;;;;;;;7.40;5.45;;;7.10;99.90;;;;;;4377959;32;20175;-64
2021/11/08 16:11:27;;;;;;;7.07;5.10;;;7.10;99.90;;;;;;4366748;32;20088;-63
2021/11/08 16:13:53;;;;;;;5.45;4.07;;;7.10;99.90;;;;;;4353303;32;20084;-63
2021/11/08 16:16:21;;;;;;;6.35;4.22;;;7.10;99.90;;;;;;4354184;32;20104;-65
2021/11/08 16:18:48;;;;;;;8.27;5.32;;;7.10;99.90;;;;;;4366588;32;20089;-64
2021/11/08 16:21:15;;;;;;;6.12;4.50;;;7.10;99.90;;;;;;4354040;32;20464;-63
2021/11/08 16:23:42;;;;;;;6.47;4.47;;;7.10;99.90;;;;;;4353620;32;20153;-65
2021/11/08 16:26:08;;;;;;;6.40;5.05;;;7.10;99.90;;;;;;4353642;32;20081;-63
2021/11/08 16:28:35;;;;;;;6.82;5.50;;;7.10;99.90;;;;;;4365944;32;20162;-63
2021/11/08 16:31:06;;;;;;;7.35;4.45;;;7.10;99.90;;;;;;4353155;32;20074;-65
2021/11/08 16:34:00;;;;;;;6.35;5.18;;;7.10;99.90;;;;;;4366103;32;20081;-65
2021/11/08 16:36:27;;;;;;;6.55;4.03;;;7.10;99.90;;;;;;4362483;32;20089;-64
2021/11/08 16:38:54;;;;;;;7.37;5.12;;;7.20;99.90;;;;;;4350372;32;20070;-65
2021/11/08 16:41:21;;;;;;;6.60;4.93;;;7.20;99.90;;;;;;4363038;32;20066;-63
2021/11/08 16:43:48;;;;;;;6.00;4.68;;;7.10;99.90;;;;;;4375703;32;20164;-64
2021/11/08 16:46:15;;;;;;;6.78;5.12;;;7.10;99.90;;;;;;4364092;32;20079;-63
2021/11/08 16:48:45;;;;;;;7.22;5.57;;;7.00;99.90;;;;;;4351082;32;20081;-65
2021/11/08 16:51:17;;;;;;;7.00;5.12;;;7.10;99.90;;;;;;4350437;32;20500;-64
2021/11/08 16:53:44;;;;;;;7.15;4.72;;;7.10;99.90;;;;;;4350250;32;20593;-64
2021/11/08 16:56:12;;;;;;;6.28;5.00;;;7.10;99.90;;;;;;4362037;32;20082;-64
2021/11/08 16:58:39;;;;;;;8.05;4.85;;;7.10;99.90;;;;;;4350203;32;20077;-64
2021/11/08 17:01:06;;;;;;;6.97;4.93;;;7.10;99.90;;;;;;4362715;32;20070;-65
2021/11/08 17:03:34;;;;;;;7.40;5.07;;;7.20;99.90;;;;;;4361742;32;20108;-66
2021/11/08 17:06:07;;;;;;;7.10;4.65;;;7.10;99.90;;;;;;4362291;32;20066;-65
2021/11/08 17:08:41;;;;;;;7.28;5.12;;;7.20;99.90;;;;;;4362793;32;20069;-64
2021/11/08 17:13:35;;;;;;;6.90;5.32;;;7.10;99.90;;;;;;4360584;32;20142;-64
2021/11/08 17:16:02;;;;;;;5.80;4.55;;;7.10;99.90;;;;;;4353944;32;20093;-64
2021/11/08 17:18:28;;;;;;;6.03;5.00;;;7.10;99.90;;;;;;4365355;32;20072;-63
2021/11/08 17:21:02;;;;;;;7.07;5.60;;;7.10;99.90;;;;;;4341433;32;20094;-64
2021/11/08 17:23:31;;;;;;;6.62;4.50;;;7.10;99.90;;;;;;4354377;32;20076;-64
2021/11/08 17:25:57;;;;;;;7.03;5.40;;;7.20;99.90;;;;;;4368665;32;20074;-69
2021/11/08 17:28:24;;;;;;;6.53;4.97;;;7.20;99.90;;;;;;4360692;32;20142;-66
2021/11/08 17:30:50;;;;;;;7.68;5.43;;;7.20;99.90;;;;;;4354615;32;20116;-63
2021/11/08 17:33:17;;;;;;;7.15;5.53;;;7.10;99.90;;;;;;4352125;32;20504;-65
2021/11/08 17:35:43;;;;;;;6.45;4.72;;;7.20;99.90;;;;;;4351848;32;20086;-63
2021/11/08 17:38:10;;;;;;;6.72;5.57;;;7.20;99.90;;;;;;4351923;32;20084;-64
2021/11/08 17:40:37;;;;;;;7.37;5.90;;;7.20;99.90;;;;;;4351963;32;20158;-65
2021/11/08 17:43:04;;;;;;;6.80;5.18;;;7.20;99.90;;;;;;4340464;32;20077;-65
2021/11/08 17:45:31;;;;;;;7.90;5.53;;;7.20;99.90;;;;;;4351856;32;20506;-64
2021/11/08 17:47:58;;;;;;;6.28;4.97;;;7.20;99.90;;;;;;4364550;32;20092;-65
2021/11/08 17:50:26;;;;;;;7.12;4.65;;;7.30;99.90;;;;;;4351954;32;20082;-65
2021/11/08 17:52:52;;;;;;;7.05;5.20;;;7.30;99.90;;;;;;4353216;32;20070;-63
2021/11/08 17:55:23;;;;;;;7.07;4.87;;;7.30;99.90;;;;;;4340039;32;20098;-64
2021/11/08 17:57:51;;;;;;;7.93;5.60;;;7.20;99.90;;;;;;4364995;32;20168;-65
2021/11/08 18:00:18;;;;;;;8.93;5.12;;;7.20;99.90;;;;;;4364258;32;20174;-63
2021/11/08 18:02:46;;;;;;;6.62;4.85;;;7.20;99.90;;;;;;4338931;32;20456;-63
2021/11/08 18:05:13;;;;;;;7.65;5.45;;;7.30;99.90;;;;;;4351756;32;20092;-66
2021/11/08 18:07:41;;;;;;;6.05;4.65;;;7.30;99.90;;;;;;4339002;32;20074;-65
2021/11/08 18:10:09;;;;;;;6.28;4.12;;;7.30;99.90;;;;;;4351151;32;20468;-63
2021/11/08 18:12:36;;;;;;;7.47;5.20;;;7.30;99.90;;;;;;4363872;32;20090;-64
2021/11/08 18:15:03;;;;;;;7.10;5.68;;;7.30;99.90;;;;;;4339130;32;20066;-63
2021/11/08 18:17:30;;;;;;;6.93;5.20;;;7.30;99.90;;;;;;4363957;32;20596;-65
2021/11/08 18:20:00;;;;;;;5.93;4.57;;;7.30;99.90;;;;;;4351459;32;20078;-63
2021/11/08 18:27:38;;;;;;;7.00;5.28;;;7.30;99.90;;;;;;4365601;32;20455;-64
2021/11/08 18:30:07;;;;;;;7.18;5.10;;;7.30;99.90;;;;;;4364696;32;20071;-65
2021/11/08 18:32:33;;;;;;;7.12;5.50;;;7.20;99.90;;;;;;4364652;32;20081;-65
2021/11/08 18:34:59;;;;;;;7.53;5.97;;;7.30;99.90;;;;;;4352226;32;20086;-65
2021/11/08 18:37:26;;;;;;;7.00;5.18;;;7.30;99.90;;;;;;4351097;32;20170;-64
2021/11/08 18:39:53;;;;;;;6.75;4.53;;;7.30;99.90;;;;;;4363856;32;20159;-64
2021/11/08 18:42:19;;;;;;;6.47;4.60;;;7.20;99.90;;;;;;4350923;32;20108;-64
2021/11/08 18:44:48;;;;;;;7.53;5.22;;;7.20;99.90;;;;;;4338674;32;20078;-65
2021/11/08 18:47:16;;;;;;;7.28;5.45;;;7.20;99.90;;;;;;4351066;32;20143;-64
2021/11/08 18:49:43;;;;;;;7.57;4.35;;;7.30;99.90;;;;;;4350509;32;20173;-65
2021/11/08 18:52:09;;;;;;;7.82;5.22;;;7.20;99.90;;;;;;4350992;32;20086;-66
2021/11/08 18:54:37;;;;;;;6.25;4.60;;;7.20;99.90;;;;;;4351147;32;20074;-64
2021/11/08 18:57:04;;;;;;;6.07;4.82;;;7.30;99.90;;;;;;4351403;32;20448;-63
2021/11/08 18:59:33;;;;;;;6.22;4.95;;;7.20;99.90;;;;;;4338892;32;20185;-65
2021/11/08 19:04:58;;;;;;;7.07;5.07;;;7.30;99.90;;;;;;4313924;32;20092;-65
2021/11/08 19:10:11;;;;;;;7.35;5.12;;;7.20;99.90;;;;;;4341946;32;20089;-64
2021/11/08 19:12:41;;;;;;;9.57;4.82;;;7.20;99.90;;;;;;4350822;32;20062;-65
2021/11/08 19:15:09;;;;;;;7.03;5.05;;;7.20;99.90;;;;;;4338252;32;20520;-65
2021/11/08 19:17:37;;;;;;;7.93;5.60;;;7.30;99.90;;;;;;4350783;32;20088;-65
2021/11/08 19:22:44;;;;;;;9.98;6.00;;;7.20;99.90;;;;;;3857127;37;20069;-66
2021/11/08 19:25:10;;;;;;;8.23;5.07;;;7.30;99.90;;;;;;4393134;32;20530;-64
2021/11/08 19:27:38;;;;;;;7.82;6.00;;;7.20;99.90;;;;;;4393271;32;20144;-65
2021/11/08 19:30:08;;;;;;;7.30;5.75;;;7.20;99.90;;;;;;4381475;32;20089;-65
2021/11/08 19:37:52;;;;;;;7.45;5.50;;;7.20;99.90;;;;;;4393526;32;20072;-64
2021/11/08 19:40:28;;;;;;;8.15;6.32;;;7.20;99.90;;;;;;4394090;32;20077;-64
2021/11/08 19:42:54;;;;;;;8.17;5.53;;;7.10;99.90;;;;;;4367086;32;20088;-64
2021/11/08 19:45:21;;;;;;;7.72;5.30;;;7.10;99.90;;;;;;4404411;32;20161;-66
2021/11/08 19:47:47;;;;;;;9.73;5.78;;;7.10;99.90;;;;;;4378225;32;20081;-65
2021/11/08 19:50:14;;;;;;;8.60;6.20;;;7.20;99.90;;;;;;4390722;32;20082;-66
2021/11/08 19:52:40;;;;;;;8.05;5.78;;;7.20;99.90;;;;;;4379272;32;20154;-65
2021/11/08 19:55:07;;;;;;;8.15;5.70;;;7.20;99.90;;;;;;4392840;32;20077;-65
2021/11/08 19:57:34;;;;;;;7.55;5.80;;;7.20;99.90;;;;;;4391062;32;20591;-64
2021/11/08 20:00:01;;;;;;;5.10;3.75;;;7.10;99.90;;;;;;4377635;32;20093;-65
2021/11/08 20:02:28;;;;;;;6.80;5.03;;;7.00;99.90;;;;;;4390056;32;20157;-64
2021/11/08 20:04:54;;;;;;;9.05;6.80;;;7.00;99.90;;;;;;4364933;32;20467;-63
2021/11/08 20:07:29;;;;;;;7.55;5.37;;;7.10;99.90;;;;;;4390449;32;20172;-64
2021/11/08 20:09:55;;;;;;;7.60;5.55;;;7.00;99.90;;;;;;4390746;32;20100;-64
2021/11/08 20:12:24;;;;;;;7.45;5.32;;;7.10;99.90;;;;;;4404178;32;20069;-65
2021/11/08 20:14:51;;;;;;;7.20;5.60;;;7.10;99.90;;;;;;4390144;32;20093;-65
2021/11/08 20:17:18;;;;;;;7.10;5.20;;;7.10;99.90;;;;;;4377598;32;20177;-64
2021/11/08 20:19:45;;;;;;;8.80;6.05;;;7.10;99.90;;;;;;4403196;32;20089;-65
2021/11/08 20:22:13;;;;;;;8.65;5.57;;;7.10;99.90;;;;;;4365997;32;20078;-65
2021/11/08 20:24:41;;;;;;;10.27;6.47;;;7.10;99.90;;;;;;4378300;32;20176;-65
2021/11/08 20:27:11;;;;;;;8.07;5.43;;;7.20;99.90;;;;;;4378510;32;20081;-64
2021/11/08 20:29:54;;;;;;;8.75;6.10;;;7.20;99.90;;;;;;4379226;32;20080;-66
2021/11/08 20:32:26;;;;;;;7.68;5.60;;;7.20;99.90;;;;;;4377478;32;20108;-64
2021/11/08 20:43:32;;;;;;;8.55;6.85;;;7.20;99.90;;;;;;4355626;32;20112;-65
2021/11/08 21:14:16;;;;;;;9.15;6.00;;;7.30;99.90;;;;;;4380003;32;20078;-64
2021/11/08 21:16:43;;;;;;;9.23;6.50;;;7.30;99.90;;;;;;4379032;32;20082;-64
2021/11/08 21:19:10;;;;;;;9.88;6.55;;;7.20;99.90;;;;;;4378917;32;20519;-65
2021/11/08 21:21:37;;;;;;;8.65;6.35;;;7.30;99.90;;;;;;4366107;32;20093;-65
2021/11/08 21:24:04;;;;;;;8.48;6.28;;;7.30;99.90;;;;;;4366823;32;20073;-64
2021/11/08 21:26:33;;;;;;;8.25;5.70;;;7.30;99.90;;;;;;4354293;32;20079;-64
2021/11/08 21:29:20;;;;;;;8.60;5.97;;;7.30;99.90;;;;;;4367040;32;20152;-63
2021/11/08 21:32:02;;;;;;;9.27;6.47;;;7.30;99.90;;;;;;4370378;32;20100;-64
2021/11/08 21:39:58;;;;;;;8.85;6.70;;;7.40;99.90;;;;;;4370130;32;20157;-65
2021/11/08 21:42:25;;;;;;;11.52;6.60;;;7.30;99.90;;;;;;4365798;32;20080;-65
2021/11/08 21:44:52;;;;;;;9.55;6.80;;;7.40;99.90;;;;;;4365277;32;20162;-65
2021/11/08 21:47:20;;;;;;;8.75;6.35;;;7.40;99.90;;;;;;4378514;32;20082;-65
2021/11/08 21:49:47;;;;;;;8.70;5.53;;;7.40;99.90;;;;;;4366124;32;20085;-64
2021/11/08 21:52:14;;;;;;;10.02;7.07;;;7.40;99.90;;;;;;4366072;32;20068;-65
2021/11/08 21:54:40;;;;;;;9.45;6.45;;;7.40;99.90;;;;;;4354087;32;20070;-64
2021/11/08 21:57:09;;;;;;;9.90;6.62;;;7.30;99.90;;;;;;4378867;32;20152;-64
2021/11/08 21:59:36;;;;;;;9.57;5.85;;;7.30;99.90;;;;;;4354007;32;20483;-64
2021/11/08 22:02:03;;;;;;;9.65;6.40;;;7.20;99.90;;;;;;4391649;32;20164;-64
2021/11/08 22:04:29;;;;;;;11.30;7.22;;;7.30;99.90;;;;;;4367274;32;20159;-65
2021/11/08 22:06:57;;;;;;;11.02;6.43;;;7.20;99.90;;;;;;4393632;32;20506;-64
2021/11/08 22:09:23;;;;;;;10.23;6.70;;;7.30;99.90;;;;;;4378290;32;20544;-64
2021/11/08 22:11:51;;;;;;;9.25;6.03;;;7.30;99.90;;;;;;4353090;32;20093;-65
2021/11/08 22:14:17;;;;;;;9.90;6.40;;;7.30;99.90;;;;;;4353622;32;20098;-64
2021/11/08 22:16:44;;;;;;;10.32;7.12;;;7.30;99.90;;;;;;4365763;32;20092;-64
2021/11/08 22:19:11;;;;;;;9.57;6.47;;;7.30;99.90;;;;;;4354988;32;20078;-65
2021/11/08 22:24:17;;;;;;;10.02;6.72;;;7.30;99.90;;;;;;3859812;37;20066;-65
2021/11/08 22:26:44;;;;;;;11.88;7.45;;;7.30;99.90;;;;;;4418994;32;20089;-65
2021/11/08 22:29:11;;;;;;;11.12;7.53;;;7.30;99.90;;;;;;4418762;32;20160;-66
2021/11/08 22:31:38;;;;;;;9.70;7.50;;;7.30;99.90;;;;;;4393606;32;20093;-64
2021/11/08 22:34:07;;;;;;;10.48;6.90;;;7.30;99.90;;;;;;4405997;32;20089;-65
2021/11/08 22:36:33;;;;;;;10.15;7.62;;;7.30;99.90;;;;;;4406017;32;20160;-64
2021/11/08 22:39:01;;;;;;;12.37;7.43;;;7.30;99.90;;;;;;4400897;32;20081;-66
2021/11/08 22:41:27;;;;;;;10.43;6.87;;;7.30;99.90;;;;;;4390902;32;20160;-64
2021/11/08 22:43:54;;;;;;;12.95;7.18;;;7.30;99.90;;;;;;4378409;32;20066;-66
2021/11/08 22:46:20;;;;;;;9.40;6.60;;;7.30;99.90;;;;;;4404591;32;20069;-65
2021/11/08 22:48:47;;;;;;;11.18;7.55;;;7.30;99.90;;;;;;4377664;32;20099;-66
2021/11/08 22:51:14;;;;;;;11.10;7.90;;;7.30;99.90;;;;;;4377879;32;20437;-63
2021/11/08 22:53:41;;;;;;;12.05;7.57;;;7.40;99.90;;;;;;4390585;32;20069;-65
2021/11/08 22:56:07;;;;;;;10.98;7.68;;;7.40;99.90;;;;;;4377965;32;20450;-65
2021/11/08 22:58:33;;;;;;;9.52;6.70;;;7.40;99.90;;;;;;4377920;32;20089;-65
2021/11/08 23:01:09;;;;;;;10.43;7.47;;;7.40;99.90;;;;;;4377486;32;20333;-63
2021/11/08 23:03:36;;;;;;;11.70;6.90;;;7.40;99.90;;;;;;4378233;32;20070;-63
2021/11/08 23:06:02;;;;;;;10.43;6.95;;;7.40;99.90;;;;;;4377955;32;20078;-64
2021/11/08 23:08:29;;;;;;;9.95;7.18;;;7.40;99.90;;;;;;4365418;32;20093;-63
2021/11/08 23:10:56;;;;;;;10.13;6.78;;;7.50;99.90;;;;;;4390451;32;20084;-63
2021/11/08 23:13:24;;;;;;;10.90;7.05;;;7.50;99.90;;;;;;4402712;32;20088;-64
2021/11/08 23:15:52;;;;;;;10.70;6.87;;;7.50;99.90;;;;;;4377956;32;20100;-64
2021/11/08 23:18:19;;;;;;;10.30;7.32;;;7.60;99.90;;;;;;4377884;32;20081;-63
2021/11/08 23:20:46;;;;;;;12.93;7.10;;;7.60;99.90;;;;;;4377900;32;20101;-65
2021/11/08 23:23:12;;;;;;;10.95;7.15;;;7.60;99.90;;;;;;4377388;32;20078;-64
2021/11/08 23:25:40;;;;;;;9.52;6.70;;;7.60;99.90;;;;;;4403776;32;20500;-64
2021/11/08 23:28:06;;;;;;;13.35;7.93;;;7.60;99.90;;;;;;4378049;32;20157;-65
2021/11/08 23:30:33;;;;;;;11.05;7.18;;;7.60;99.90;;;;;;4377055;32;20084;-65
2021/11/08 23:33:02;;;;;;;10.68;7.47;;;7.60;99.90;;;;;;4364776;32;20095;-65
2021/11/08 23:35:33;;;;;;;11.73;7.62;;;7.60;99.90;;;;;;4380565;32;20145;-64
2021/11/08 23:38:00;;;;;;;9.75;7.00;;;7.60;99.90;;;;;;4379869;32;20086;-64
2021/11/08 23:40:27;;;;;;;13.77;7.35;;;7.70;99.90;;;;;;4380043;32;20455;-64
2021/11/08 23:42:54;;;;;;;10.50;7.35;;;7.60;99.90;;;;;;4367877;32;20074;-64
2021/11/08 23:45:21;;;;;;;11.02;7.60;;;7.60;99.90;;;;;;4367843;32;20078;-66
2021/11/08 23:47:47;;;;;;;9.85;6.65;;;7.70;99.90;;;;;;4367253;32;20502;-63
2021/11/08 23:50:14;;;;;;;11.20;7.07;;;7.70;99.90;;;;;;4367234;32;20525;-65
2021/11/08 23:52:40;;;;;;;11.52;7.53;;;7.70;99.90;;;;;;4379434;32;20098;-65
2021/11/08 23:55:10;;;;;;;10.50;7.62;;;7.70;99.90;;;;;;4379317;32;20097;-65
2021/11/08 23:57:37;;;;;;;11.38;6.82;;;7.70;99.90;;;;;;4391985;32;20604;-65
